Time;durP1;ratioP1;P1;durP2;ratioP2;P2;SDS_P1;SDS_P2;PMS_P1;PMS_P2;Temp;Humidity;BMP_temperature;BMP_pressure;BME280_temperature;BME280_humidity;BME280_pressure;Samples;Min_cycle;Max_cycle;Signal;HPM_P1;HPM_P2
2023/07/22 00:00:23;;;;;;;5.35;4.22;;;14.90;99.90;;;;;;5026283;28;20476;-74
2023/07/22 00:02:49;;;;;;;4.40;4.00;;;14.90;99.90;;;;;;5038026;28;20041;-75
2023/07/22 00:05:21;;;;;;;5.60;4.45;;;14.80;99.90;;;;;;5041954;28;20032;-75
2023/07/22 00:07:48;;;;;;;5.32;4.10;;;14.80;99.90;;;;;;5025266;28;20033;-75
2023/07/22 00:10:15;;;;;;;4.50;4.00;;;14.70;99.90;;;;;;5056415;28;20394;-74
2023/07/22 00:12:42;;;;;;;4.68;4.28;;;14.70;99.90;;;;;;5023424;28;20028;-75
2023/07/22 00:15:11;;;;;;;5.63;4.55;;;14.60;99.90;;;;;;5058280;28;20400;-75
2023/07/22 00:17:40;;;;;;;6.78;4.68;;;14.60;99.90;;;;;;5020972;28;20055;-75
2023/07/22 00:20:10;;;;;;;6.03;4.55;;;14.60;99.90;;;;;;5053540;28;20025;-75
2023/07/22 00:22:39;;;;;;;6.05;4.82;;;14.50;99.90;;;;;;5058249;28;20028;-75
2023/07/22 00:25:10;;;;;;;7.30;4.78;;;14.50;99.90;;;;;;5057435;28;20039;-75
2023/07/22 00:27:37;;;;;;;8.15;5.68;;;14.50;99.90;;;;;;5056211;28;20033;-75
2023/07/22 00:30:06;;;;;;;6.75;5.18;;;14.50;99.90;;;;;;5040763;28;20032;-75
2023/07/22 00:32:33;;;;;;;6.78;4.45;;;14.50;99.90;;;;;;5056656;28;20036;-75
2023/07/22 00:34:59;;;;;;;6.65;5.15;;;14.50;99.90;;;;;;5023849;28;20048;-75
2023/07/22 00:37:26;;;;;;;4.90;4.25;;;14.50;99.90;;;;;;5020869;28;20039;-75
2023/07/22 00:39:52;;;;;;;5.45;4.40;;;14.50;99.90;;;;;;5004616;28;20047;-75
2023/07/22 00:42:19;;;;;;;6.05;4.97;;;14.40;99.90;;;;;;5037436;28;20039;-75
2023/07/22 00:44:47;;;;;;;6.15;5.30;;;14.50;99.90;;;;;;5057799;28;20032;-75
2023/07/22 00:47:14;;;;;;;6.32;4.70;;;14.40;99.90;;;;;;5023280;28;20403;-75
2023/07/22 00:49:41;;;;;;;6.85;5.38;;;14.40;99.90;;;;;;5037955;28;20036;-75
2023/07/22 00:52:08;;;;;;;7.22;5.57;;;14.30;99.90;;;;;;5041423;28;20033;-75
2023/07/22 00:54:35;;;;;;;7.43;6.38;;;14.30;99.90;;;;;;5041928;28;20043;-75
2023/07/22 00:57:01;;;;;;;6.82;5.97;;;14.30;99.90;;;;;;5046007;28;20036;-75
2023/07/22 00:59:28;;;;;;;7.32;6.07;;;14.30;99.90;;;;;;5058288;28;20027;-74
2023/07/22 01:01:55;;;;;;;7.68;6.25;;;14.30;99.90;;;;;;5038634;28;20048;-74
2023/07/22 01:04:24;;;;;;;8.90;6.15;;;14.30;99.90;;;;;;5053357;28;20036;-75
2023/07/22 01:06:52;;;;;;;8.75;6.82;;;14.30;99.90;;;;;;5022605;28;20032;-75
2023/07/22 01:09:20;;;;;;;8.85;6.30;;;14.30;99.90;;;;;;5037630;28;21365;-75
2023/07/22 01:11:46;;;;;;;8.18;5.93;;;14.30;99.90;;;;;;5039056;28;20557;-75
2023/07/22 01:14:13;;;;;;;9.18;7.13;;;14.40;99.90;;;;;;5040760;28;20052;-75
2023/07/22 01:16:40;;;;;;;9.07;6.75;;;14.40;99.90;;;;;;5055505;28;20383;-75
2023/07/22 01:19:08;;;;;;;8.07;6.78;;;14.50;99.90;;;;;;5019911;28;20032;-75
2023/07/22 01:21:36;;;;;;;9.50;7.35;;;14.50;99.90;;;;;;5056314;28;20055;-75
2023/07/22 01:24:03;;;;;;;8.48;6.18;;;14.50;99.90;;;;;;5053952;28;20329;-75
2023/07/22 01:26:29;;;;;;;8.45;6.72;;;14.60;99.90;;;;;;5038263;28;20028;-74
2023/07/22 01:29:07;;;;;;;9.45;7.38;;;14.60;99.90;;;;;;5038614;28;20039;-75
2023/07/22 01:31:35;;;;;;;9.20;7.40;;;14.70;99.90;;;;;;5038586;28;20028;-74
2023/07/22 01:34:03;;;;;;;10.77;7.25;;;14.70;99.90;;;;;;5021485;28;20052;-75
2023/07/22 01:36:30;;;;;;;9.40;7.35;;;14.70;99.90;;;;;;5036159;28;20542;-75
2023/07/22 01:38:56;;;;;;;10.13;7.45;;;14.70;99.90;;;;;;5025023;28;20439;-74
2023/07/22 01:41:23;;;;;;;9.43;7.03;;;14.70;99.90;;;;;;5037610;28;20047;-74
2023/07/22 01:43:49;;;;;;;9.45;7.40;;;14.70;99.90;;;;;;5019017;28;20029;-75
2023/07/22 01:46:16;;;;;;;9.40;7.13;;;14.80;99.90;;;;;;5036371;28;20486;-75
2023/07/22 01:48:43;;;;;;;10.80;7.82;;;14.80;99.90;;;;;;5055667;28;20071;-75
2023/07/22 01:51:09;;;;;;;10.70;7.85;;;14.80;99.90;;;;;;5036510;28;20041;-75
2023/07/22 01:53:36;;;;;;;8.52;6.53;;;14.80;99.90;;;;;;5037631;28;20033;-75
2023/07/22 01:56:04;;;;;;;8.68;6.40;;;14.80;99.90;;;;;;5019053;28;20383;-74
2023/07/22 01:58:32;;;;;;;10.07;7.80;;;14.80;99.90;;;;;;5004150;28;20064;-74
2023/07/22 02:00:59;;;;;;;12.05;8.40;;;14.80;99.90;;;;;;5038148;28;20051;-75
2023/07/22 02:03:26;;;;;;;8.77;7.05;;;14.80;99.90;;;;;;5022752;28;20037;-75
2023/07/22 02:05:53;;;;;;;9.77;7.88;;;14.70;99.90;;;;;;5038372;28;20024;-74
2023/07/22 02:08:20;;;;;;;11.07;7.50;;;14.70;99.90;;;;;;5060310;28;20039;-75
2023/07/22 02:10:47;;;;;;;11.65;8.20;;;14.70;99.90;;;;;;5057100;28;20028;-74
2023/07/22 02:13:13;;;;;;;11.13;8.02;;;14.70;99.90;;;;;;5019585;28;20040;-74
2023/07/22 02:15:42;;;;;;;9.68;7.20;;;14.70;99.90;;;;;;5021825;28;20044;-74
2023/07/22 02:18:08;;;;;;;11.85;8.00;;;14.60;99.90;;;;;;5053025;28;20035;-74
2023/07/22 02:20:35;;;;;;;11.07;8.18;;;14.60;99.90;;;;;;5035915;28;20036;-74
2023/07/22 02:23:02;;;;;;;11.20;8.75;;;14.60;99.90;;;;;;5035349;28;20040;-74
2023/07/22 02:25:28;;;;;;;13.02;10.35;;;14.50;99.90;;;;;;5035880;28;20028;-74
2023/07/22 02:27:55;;;;;;;12.20;9.05;;;14.50;99.90;;;;;;5037377;28;20450;-74
2023/07/22 02:30:21;;;;;;;12.15;8.45;;;14.50;99.90;;;;;;5023421;28;20489;-73
2023/07/22 02:32:47;;;;;;;13.23;8.55;;;14.50;99.90;;;;;;5035283;28;20039;-74
2023/07/22 02:35:14;;;;;;;13.45;8.93;;;14.40;99.90;;;;;;5036141;28;20060;-74
2023/07/22 02:37:40;;;;;;;13.23;10.38;;;14.40;99.90;;;;;;5003613;28;20037;-74
2023/07/22 02:40:07;;;;;;;13.50;10.20;;;14.40;99.90;;;;;;5036309;28;20387;-74
2023/07/22 02:42:36;;;;;;;13.55;9.55;;;14.30;99.90;;;;;;5033809;28;20043;-74
2023/07/22 02:45:09;;;;;;;11.63;9.57;;;14.30;99.90;;;;;;5035695;28;20395;-74
2023/07/22 02:47:36;;;;;;;12.73;9.52;;;14.30;99.90;;;;;;5036072;28;20036;-74
2023/07/22 02:50:04;;;;;;;14.68;10.63;;;14.30;99.90;;;;;;5021200;28;20079;-74
2023/07/22 02:52:32;;;;;;;12.65;9.65;;;14.30;99.90;;;;;;5021552;28;20542;-74
2023/07/22 02:55:16;;;;;;;11.65;9.18;;;14.30;99.90;;;;;;5037743;28;20036;-74
2023/07/22 02:57:42;;;;;;;14.70;10.75;;;14.20;99.90;;;;;;5035952;28;20036;-74
2023/07/22 03:00:12;;;;;;;14.77;10.85;;;14.20;99.90;;;;;;5022704;28;20039;-73
2023/07/22 03:02:39;;;;;;;15.68;11.68;;;14.20;99.90;;;;;;5008522;28;20047;-74
2023/07/22 03:05:08;;;;;;;14.65;10.57;;;14.10;99.90;;;;;;4999329;28;20439;-74
2023/07/22 03:07:35;;;;;;;15.15;11.13;;;14.10;99.90;;;;;;5037368;28;20040;-74
2023/07/22 03:10:02;;;;;;;15.88;11.73;;;14.10;99.90;;;;;;5020536;28;20043;-74
2023/07/22 03:12:29;;;;;;;15.40;10.88;;;14.00;99.90;;;;;;5019699;28;20551;-74
2023/07/22 03:14:56;;;;;;;17.52;11.52;;;14.00;99.90;;;;;;5056898;28;20041;-74
2023/07/22 03:17:22;;;;;;;14.13;10.30;;;14.00;99.90;;;;;;5054164;28;20399;-75
2023/07/22 03:19:49;;;;;;;14.55;11.43;;;14.00;99.90;;;;;;5049586;28;20036;-75
2023/07/22 03:22:17;;;;;;;17.58;12.10;;;14.00;99.90;;;;;;5034807;28;20044;-74
2023/07/22 03:24:44;;;;;;;16.77;12.30;;;14.00;99.90;;;;;;5002659;28;20033;-75
2023/07/22 03:27:12;;;;;;;15.43;10.85;;;14.00;99.90;;;;;;5020201;28;20029;-74
2023/07/22 03:29:39;;;;;;;15.88;11.80;;;13.90;99.90;;;;;;5035309;28;20028;-75
2023/07/22 03:32:06;;;;;;;15.85;12.13;;;13.80;99.90;;;;;;5037642;28;20029;-74
2023/07/22 03:34:33;;;;;;;16.30;12.20;;;13.80;99.90;;;;;;5006153;28;20041;-74
2023/07/22 03:36:59;;;;;;;17.10;12.48;;;13.80;99.90;;;;;;5020362;28;20048;-74
2023/07/22 03:39:25;;;;;;;22.25;13.85;;;13.80;99.90;;;;;;5032058;28;20040;-75
2023/07/22 03:41:52;;;;;;;17.52;12.73;;;13.80;99.90;;;;;;5054444;28;20033;-75
2023/07/22 03:44:18;;;;;;;15.48;10.63;;;13.80;99.90;;;;;;5019196;28;20036;-74
2023/07/22 03:46:45;;;;;;;19.35;12.90;;;13.80;99.90;;;;;;5037026;28;20040;-75
2023/07/22 03:49:12;;;;;;;17.60;11.32;;;13.80;99.90;;;;;;5021231;28;20526;-75
2023/07/22 03:51:38;;;;;;;15.80;12.35;;;13.80;99.90;;;;;;5056397;28;20036;-74
2023/07/22 03:54:05;;;;;;;18.42;12.60;;;13.80;99.90;;;;;;5034893;28;20399;-75
2023/07/22 03:56:31;;;;;;;16.48;12.88;;;13.80;99.90;;;;;;5037890;28;20455;-74
2023/07/22 03:58:58;;;;;;;17.42;11.88;;;13.80;99.90;;;;;;5052510;28;20040;-75
2023/07/22 04:01:24;;;;;;;16.85;12.48;;;13.80;99.90;;;;;;5030631;28;20041;-75
2023/07/22 04:03:51;;;;;;;15.85;10.90;;;13.80;99.90;;;;;;5034761;28;20032;-75
2023/07/22 04:06:18;;;;;;;13.48;10.32;;;13.80;99.90;;;;;;5036287;28;20051;-74
2023/07/22 04:08:45;;;;;;;17.70;11.75;;;13.80;99.90;;;;;;5005002;28;20029;-75
2023/07/22 04:11:13;;;;;;;16.67;11.65;;;13.80;99.90;;;;;;5022014;28;20036;-75
2023/07/22 04:13:40;;;;;;;15.38;11.20;;;13.80;99.90;;;;;;5037487;28;20044;-75
2023/07/22 04:16:07;;;;;;;14.20;10.55;;;13.80;99.90;;;;;;5054181;28;20036;-74
2023/07/22 04:18:35;;;;;;;17.00;12.25;;;13.90;99.90;;;;;;5055365;28;20025;-74
2023/07/22 04:21:02;;;;;;;12.68;9.65;;;13.90;99.90;;;;;;5050886;28;20037;-75
2023/07/22 04:23:28;;;;;;;13.88;10.27;;;13.90;99.90;;;;;;5019617;28;20032;-74
2023/07/22 04:25:55;;;;;;;13.10;10.30;;;13.90;99.90;;;;;;5021596;28;20032;-74
2023/07/22 04:28:21;;;;;;;17.15;11.48;;;13.90;99.90;;;;;;5040538;28;20040;-74
2023/07/22 04:30:56;;;;;;;18.42;10.75;;;13.90;99.90;;;;;;5058688;28;20041;-74
2023/07/22 04:33:23;;;;;;;15.55;11.45;;;13.90;99.90;;;;;;5039442;28;20052;-74
2023/07/22 04:35:49;;;;;;;17.60;12.60;;;13.90;99.90;;;;;;5022999;28;20519;-74
2023/07/22 04:38:16;;;;;;;15.20;11.07;;;14.00;99.90;;;;;;5038874;28;20037;-74
2023/07/22 04:40:45;;;;;;;15.90;11.55;;;14.10;99.90;;;;;;5018970;28;20035;-74
2023/07/22 04:43:12;;;;;;;18.45;12.68;;;14.10;99.90;;;;;;5023862;28;20044;-74
2023/07/22 04:45:41;;;;;;;16.92;11.57;;;14.20;99.90;;;;;;5038927;28;20035;-74
2023/07/22 04:48:08;;;;;;;19.50;13.20;;;14.30;99.90;;;;;;5021910;28;20036;-74
2023/07/22 04:50:35;;;;;;;17.83;12.35;;;14.40;99.90;;;;;;5039251;28;20400;-74
2023/07/22 04:53:01;;;;;;;21.75;12.70;;;14.40;99.90;;;;;;5040916;28;20388;-74
2023/07/22 04:55:29;;;;;;;15.43;10.45;;;14.50;99.90;;;;;;5027784;28;20036;-75
2023/07/22 04:57:56;;;;;;;15.93;10.65;;;14.60;99.90;;;;;;5028380;28;20028;-74
2023/07/22 05:00:22;;;;;;;18.10;11.85;;;14.70;99.90;;;;;;5053914;28;20037;-74
2023/07/22 05:02:51;;;;;;;18.40;12.60;;;14.70;99.90;;;;;;5037091;28;20309;-74
2023/07/22 05:05:18;;;;;;;16.25;12.35;;;14.70;99.90;;;;;;5031779;28;20024;-74
2023/07/22 05:07:45;;;;;;;20.08;13.68;;;14.80;99.90;;;;;;5030068;28;20527;-73
2023/07/22 05:10:13;;;;;;;18.33;12.80;;;14.80;99.90;;;;;;5059328;28;20032;-75
2023/07/22 05:12:41;;;;;;;15.20;11.30;;;14.80;99.90;;;;;;5038985;28;20486;-74
2023/07/22 05:15:10;;;;;;;15.65;11.45;;;14.90;99.90;;;;;;5040962;28;20222;-74
2023/07/22 05:17:37;;;;;;;17.38;12.27;;;15.00;99.90;;;;;;5045096;28;20029;-74
2023/07/22 05:20:10;;;;;;;14.95;10.57;;;15.10;99.90;;;;;;5055109;28;20032;-74
2023/07/22 05:22:37;;;;;;;15.65;11.32;;;15.30;99.90;;;;;;5053788;28;20024;-74
2023/07/22 05:25:06;;;;;;;20.13;13.23;;;15.40;99.90;;;;;;5022934;28;20044;-74
2023/07/22 05:27:33;;;;;;;17.02;12.20;;;15.50;99.90;;;;;;5054638;28;20032;-73
2023/07/22 05:30:00;;;;;;;19.42;14.18;;;15.60;99.90;;;;;;5022077;28;20024;-74
2023/07/22 05:32:29;;;;;;;26.45;13.20;;;15.60;99.90;;;;;;5057726;28;20029;-74
2023/07/22 05:34:56;;;;;;;19.45;12.82;;;15.70;99.90;;;;;;5037779;28;20036;-74
2023/07/22 05:37:24;;;;;;;17.88;13.75;;;15.70;99.90;;;;;;5054153;28;20494;-74
2023/07/22 05:39:50;;;;;;;21.20;14.15;;;15.70;99.90;;;;;;5053948;28;20032;-74
2023/07/22 05:42:18;;;;;;;19.17;14.15;;;15.70;99.90;;;;;;5035661;28;20028;-74
2023/07/22 05:44:44;;;;;;;21.55;15.02;;;15.80;99.90;;;;;;5004381;28;20032;-74
2023/07/22 05:47:11;;;;;;;18.85;13.85;;;16.00;99.90;;;;;;5034974;28;20025;-74
2023/07/22 05:49:37;;;;;;;20.02;13.93;;;16.30;99.90;;;;;;5038063;28;20037;-74
2023/07/22 05:52:04;;;;;;;22.05;15.63;;;16.40;99.90;;;;;;5039178;28;20135;-73
2023/07/22 05:54:31;;;;;;;20.02;13.85;;;16.60;99.90;;;;;;5021965;28;20036;-74
2023/07/22 05:56:58;;;;;;;23.60;15.45;;;16.70;99.90;;;;;;5038500;28;20055;-74
2023/07/22 05:59:24;;;;;;;18.80;13.40;;;16.70;99.90;;;;;;5019595;28;20475;-74
2023/07/22 06:01:51;;;;;;;23.23;15.77;;;16.70;99.90;;;;;;5035475;28;20039;-74
2023/07/22 06:04:18;;;;;;;21.10;15.05;;;16.70;99.90;;;;;;5037113;28;20036;-74
2023/07/22 06:06:44;;;;;;;21.10;15.02;;;16.70;99.90;;;;;;5022514;28;20032;-74
2023/07/22 06:09:11;;;;;;;22.90;16.42;;;16.80;99.90;;;;;;5054978;28;20103;-74
2023/07/22 06:11:38;;;;;;;26.83;18.45;;;17.00;99.90;;;;;;5056341;28;20040;-74
2023/07/22 06:14:04;;;;;;;22.45;16.45;;;17.30;99.90;;;;;;5054680;28;20028;-74
2023/07/22 06:16:31;;;;;;;23.25;15.68;;;17.70;99.90;;;;;;5056340;28;20039;-74
2023/07/22 06:18:57;;;;;;;20.67;15.13;;;18.00;99.90;;;;;;5036691;28;20025;-74
2023/07/22 06:21:24;;;;;;;20.60;15.40;;;18.10;99.90;;;;;;5052927;28;20071;-74
2023/07/22 06:23:51;;;;;;;22.02;16.38;;;18.10;99.90;;;;;;5055274;28;20037;-74
2023/07/22 06:26:17;;;;;;;20.42;14.95;;;18.10;99.90;;;;;;5006972;28;20640;-74
2023/07/22 06:28:44;;;;;;;19.08;14.02;;;18.10;99.90;;;;;;5020956;28;20029;-74
2023/07/22 06:31:10;;;;;;;18.85;14.40;;;18.00;99.90;;;;;;5037458;28;20039;-74
2023/07/22 06:33:37;;;;;;;18.30;13.18;;;18.00;99.90;;;;;;5037957;28;20032;-75
2023/07/22 06:36:03;;;;;;;20.58;15.40;;;18.00;99.90;;;;;;5037800;28;20033;-74
2023/07/22 06:38:29;;;;;;;16.27;12.75;;;18.00;99.90;;;;;;5054780;28;20036;-74
2023/07/22 06:40:57;;;;;;;17.83;14.25;;;18.00;99.90;;;;;;5035519;28;20036;-74
2023/07/22 06:43:23;;;;;;;21.60;16.20;;;18.10;99.90;;;;;;5003692;28;20029;-74
2023/07/22 06:45:50;;;;;;;18.23;13.25;;;18.10;99.90;;;;;;5035496;28;20040;-74
2023/07/22 06:48:17;;;;;;;20.10;14.90;;;18.20;99.90;;;;;;5022019;28;20045;-74
2023/07/22 06:50:49;;;;;;;23.75;15.40;;;18.30;99.90;;;;;;5019136;28;20040;-74
2023/07/22 06:53:16;;;;;;;15.38;12.70;;;18.50;99.90;;;;;;5035635;28;20481;-74
2023/07/22 06:55:50;;;;;;;20.98;14.45;;;18.60;99.90;;;;;;5056052;28;20048;-74
2023/07/22 06:58:17;;;;;;;21.55;15.52;;;18.70;99.90;;;;;;5019011;28;20138;-75
2023/07/22 07:00:44;;;;;;;21.42;14.90;;;18.80;99.90;;;;;;5033350;28;20476;-74
2023/07/22 07:03:11;;;;;;;17.73;13.20;;;18.90;99.90;;;;;;5031254;28;20032;-74
2023/07/22 07:05:41;;;;;;;24.40;16.35;;;19.00;99.90;;;;;;5017703;28;20043;-74
2023/07/22 07:08:10;;;;;;;15.50;12.05;;;19.20;99.90;;;;;;5035246;28;20037;-74
2023/07/22 07:10:38;;;;;;;18.95;13.80;;;19.20;99.90;;;;;;5022941;28;20039;-74
2023/07/22 07:13:05;;;;;;;17.27;12.77;;;19.30;99.90;;;;;;5036914;28;20399;-74
2023/07/22 07:15:31;;;;;;;21.73;15.05;;;19.40;99.90;;;;;;5019849;28;20044;-74
2023/07/22 07:17:58;;;;;;;19.40;14.18;;;19.50;99.90;;;;;;5036477;28;20028;-74
2023/07/22 07:20:24;;;;;;;17.42;13.52;;;19.50;99.90;;;;;;5034682;28;20502;-74
2023/07/22 07:22:51;;;;;;;22.27;14.68;;;19.50;99.90;;;;;;5017635;28;20037;-73
2023/07/22 07:25:17;;;;;;;13.63;10.95;;;19.60;99.90;;;;;;5035469;28;20039;-74
2023/07/22 07:27:43;;;;;;;12.68;10.13;;;19.60;99.90;;;;;;5035865;28;20033;-74
2023/07/22 07:30:11;;;;;;;19.63;12.52;;;19.70;99.90;;;;;;5003700;28;20395;-75
2023/07/22 07:32:37;;;;;;;12.27;9.50;;;19.90;99.90;;;;;;5054966;28;20037;-75
2023/07/22 07:35:04;;;;;;;14.77;11.45;;;20.00;99.90;;;;;;5035248;28;20476;-75
2023/07/22 07:37:32;;;;;;;19.10;13.70;;;20.20;99.90;;;;;;5035684;28;20036;-73
2023/07/22 07:39:59;;;;;;;17.67;11.60;;;20.40;99.90;;;;;;5035370;28;20445;-74
2023/07/22 07:42:27;;;;;;;17.58;13.35;;;20.50;99.90;;;;;;5034579;28;20052;-74
2023/07/22 07:44:54;;;;;;;16.17;11.05;;;20.80;99.90;;;;;;5054260;28;20032;-74
2023/07/22 07:47:21;;;;;;;14.75;10.70;;;20.90;99.90;;;;;;5055818;28;20043;-73
2023/07/22 07:49:48;;;;;;;13.60;10.88;;;21.10;99.90;;;;;;5036575;28;20052;-72
2023/07/22 07:52:15;;;;;;;14.05;9.93;;;21.30;99.90;;;;;;5038423;28;20037;-73
2023/07/22 07:54:42;;;;;;;14.30;10.45;;;21.30;99.90;;;;;;5049873;28;20047;-72
2023/07/22 07:57:08;;;;;;;14.98;11.88;;;21.30;99.90;;;;;;5053258;28;20040;-73
2023/07/22 07:59:35;;;;;;;10.48;9.38;;;21.40;99.90;;;;;;5022977;28;20028;-73
2023/07/22 08:02:04;;;;;;;11.65;8.50;;;21.40;99.90;;;;;;5020768;28;20052;-73
2023/07/22 08:04:31;;;;;;;10.55;9.10;;;21.50;99.90;;;;;;5044619;28;20043;-72
2023/07/22 08:06:57;;;;;;;13.00;9.65;;;21.60;99.90;;;;;;5037120;28;20033;-73
2023/07/22 08:09:24;;;;;;;11.05;8.32;;;21.70;99.90;;;;;;5062554;28;20032;-72
2023/07/22 08:11:50;;;;;;;12.57;9.48;;;21.80;99.90;;;;;;5048028;28;20593;-72
2023/07/22 08:14:18;;;;;;;11.82;7.78;;;22.00;99.90;;;;;;5041861;28;20036;-72
2023/07/22 08:16:44;;;;;;;11.18;7.35;;;22.00;99.90;;;;;;5061401;28;20487;-73
2023/07/22 08:19:11;;;;;;;10.18;6.60;;;22.10;99.90;;;;;;5067909;28;20040;-72
2023/07/22 08:21:38;;;;;;;8.57;5.95;;;22.10;99.90;;;;;;5055976;28;20029;-73
2023/07/22 08:24:05;;;;;;;10.02;6.72;;;22.20;99.90;;;;;;5058968;28;20031;-72
2023/07/22 08:26:31;;;;;;;8.15;6.18;;;22.30;99.90;;;;;;5061020;28;20043;-73
2023/07/22 08:28:58;;;;;;;8.13;5.97;;;22.40;99.90;;;;;;5040045;28;20016;-72
2023/07/22 08:31:25;;;;;;;9.40;7.80;;;22.60;99.90;;;;;;5058734;28;20032;-74
2023/07/22 08:33:51;;;;;;;12.50;8.15;;;22.60;99.90;;;;;;5060161;28;20078;-72
2023/07/22 08:36:18;;;;;;;9.93;7.38;;;22.70;99.90;;;;;;5039950;28;20136;-73
2023/07/22 08:38:44;;;;;;;7.93;6.32;;;22.70;99.90;;;;;;5058747;28;20047;-73
2023/07/22 08:41:15;;;;;;;9.85;6.97;;;22.70;99.90;;;;;;5038286;28;20036;-73
2023/07/22 08:43:45;;;;;;;7.05;5.28;;;22.80;99.90;;;;;;5020143;28;20028;-73
2023/07/22 08:46:13;;;;;;;8.85;6.90;;;22.70;99.90;;;;;;5055897;28;20029;-73
2023/07/22 08:48:42;;;;;;;10.07;6.90;;;22.70;99.90;;;;;;5023975;28;20021;-74
2023/07/22 08:51:18;;;;;;;9.15;6.55;;;22.70;99.90;;;;;;5023247;28;20415;-73
2023/07/22 08:53:47;;;;;;;9.07;5.82;;;22.70;99.90;;;;;;5058271;28;20036;-73
2023/07/22 08:56:14;;;;;;;13.02;9.25;;;22.80;99.90;;;;;;5057077;28;20052;-74
2023/07/22 08:58:42;;;;;;;7.70;6.40;;;22.90;99.90;;;;;;5059523;28;20025;-73
2023/07/22 09:01:09;;;;;;;10.48;7.72;;;23.00;99.90;;;;;;5053813;28;20025;-72
2023/07/22 09:03:39;;;;;;;8.57;6.68;;;23.00;99.90;;;;;;5036293;28;20037;-72
2023/07/22 09:06:06;;;;;;;6.97;5.82;;;23.10;99.90;;;;;;5040012;28;20016;-72
2023/07/22 09:08:33;;;;;;;9.23;6.45;;;23.10;99.90;;;;;;5038846;28;20028;-72
2023/07/22 09:11:01;;;;;;;8.63;6.60;;;23.20;99.90;;;;;;5038954;28;20032;-73
2023/07/22 09:13:28;;;;;;;9.15;6.53;;;23.20;99.90;;;;;;5039543;28;20023;-73
2023/07/22 09:15:58;;;;;;;8.77;6.65;;;23.20;99.90;;;;;;5037469;28;20044;-73
2023/07/22 09:18:25;;;;;;;9.57;6.90;;;23.20;99.90;;;;;;5039881;28;21028;-73
2023/07/22 09:20:52;;;;;;;7.38;5.15;;;23.30;99.90;;;;;;5055021;28;20012;-72
2023/07/22 09:23:34;;;;;;;7.13;5.20;;;23.50;99.90;;;;;;5038576;28;20020;-72
2023/07/22 09:26:13;;;;;;;6.72;5.53;;;23.70;99.90;;;;;;5055488;28;20028;-72
2023/07/22 09:28:49;;;;;;;8.38;6.57;;;23.80;99.90;;;;;;5019107;28;20051;-73
2023/07/22 09:31:15;;;;;;;7.10;5.20;;;23.70;99.90;;;;;;5058257;28;20028;-73
2023/07/22 09:33:42;;;;;;;7.97;5.65;;;23.60;99.90;;;;;;5023956;28;20036;-73
2023/07/22 09:36:13;;;;;;;7.57;4.93;;;23.50;99.90;;;;;;5055287;28;20024;-72
2023/07/22 09:38:40;;;;;;;8.82;6.50;;;23.40;99.90;;;;;;5039597;28;20029;-73
2023/07/22 09:41:07;;;;;;;11.57;5.95;;;23.40;99.90;;;;;;5053139;28;20112;-72
2023/07/22 09:43:38;;;;;;;6.97;5.18;;;23.40;99.90;;;;;;5033857;28;20023;-73
2023/07/22 09:46:11;;;;;;;5.63;3.97;;;23.40;99.90;;;;;;5052451;28;20028;-72
2023/07/22 09:48:47;;;;;;;9.18;4.93;;;23.40;99.90;;;;;;5056168;28;20025;-73
2023/07/22 09:51:16;;;;;;;8.02;5.25;;;23.50;99.90;;;;;;5037563;28;20044;-72
2023/07/22 09:53:47;;;;;;;6.93;3.85;;;23.60;98.90;;;;;;5038722;28;20476;-72
2023/07/22 09:56:14;;;;;;;6.13;2.83;;;23.80;99.10;;;;;;5054872;28;20028;-72
2023/07/22 09:58:44;;;;;;;6.13;3.40;;;24.00;99.00;;;;;;5056038;28;20020;-72
2023/07/22 10:01:12;;;;;;;8.68;4.07;;;24.20;98.70;;;;;;5023986;28;20494;-73
2023/07/22 10:03:42;;;;;;;5.80;3.97;;;24.50;98.40;;;;;;5051224;28;20019;-73
2023/07/22 10:06:10;;;;;;;4.35;3.15;;;24.70;97.90;;;;;;5033782;28;20495;-73
2023/07/22 10:08:37;;;;;;;7.35;2.92;;;24.90;97.70;;;;;;5038212;28;20032;-73
2023/07/22 10:11:08;;;;;;;5.28;2.60;;;25.00;97.30;;;;;;5038100;28;20031;-73
2023/07/22 10:13:36;;;;;;;6.07;3.87;;;25.00;97.00;;;;;;5022211;28;20578;-73
2023/07/22 10:16:03;;;;;;;8.73;3.42;;;25.00;96.90;;;;;;5037213;28;20029;-72
2023/07/22 10:18:32;;;;;;;3.78;2.72;;;24.80;96.10;;;;;;5035745;28;20024;-72
2023/07/22 10:21:00;;;;;;;3.90;3.17;;;24.70;96.60;;;;;;5052958;28;20017;-73
2023/07/22 10:23:27;;;;;;;4.55;3.05;;;24.60;96.50;;;;;;5054436;28;20017;-72
2023/07/22 10:25:54;;;;;;;6.05;3.05;;;24.60;96.50;;;;;;5023259;28;20025;-72
2023/07/22 10:28:22;;;;;;;4.40;2.75;;;24.60;96.60;;;;;;5038874;28;20041;-73
2023/07/22 10:30:51;;;;;;;7.22;3.30;;;24.60;96.60;;;;;;5038172;28;20068;-73
2023/07/22 10:33:18;;;;;;;7.38;3.05;;;24.80;96.40;;;;;;5038331;28;20383;-72
2023/07/22 10:36:03;;;;;;;5.13;3.03;;;24.80;96.20;;;;;;5056916;28;20055;-73
2023/07/22 10:38:30;;;;;;;5.70;3.50;;;24.90;95.90;;;;;;5037519;28;20079;-72
2023/07/22 10:40:56;;;;;;;5.15;3.88;;;25.00;95.20;;;;;;5054705;28;20035;-73
2023/07/22 10:43:33;;;;;;;3.85;2.30;;;25.10;94.80;;;;;;5017994;28;20490;-72
2023/07/22 10:46:12;;;;;;;2.92;2.08;;;25.20;95.10;;;;;;5055143;28;20324;-72
2023/07/22 10:48:41;;;;;;;9.18;3.47;;;25.30;95.10;;;;;;5053431;28;20053;-73
2023/07/22 10:51:15;;;;;;;4.15;2.65;;;25.50;95.00;;;;;;5053312;28;20017;-73
2023/07/22 10:53:44;;;;;;;3.95;2.75;;;25.60;94.40;;;;;;5037207;28;20029;-73
2023/07/22 10:56:24;;;;;;;4.68;3.33;;;25.50;94.10;;;;;;5049927;28;20036;-73
2023/07/22 10:58:51;;;;;;;4.50;2.47;;;25.40;93.60;;;;;;5019552;28;20031;-73
2023/07/22 11:01:27;;;;;;;4.75;2.92;;;25.30;93.40;;;;;;5054012;28;20380;-73
2023/07/22 11:04:15;;;;;;;4.20;2.53;;;25.30;93.60;;;;;;5035284;28;20028;-73
2023/07/22 11:06:47;;;;;;;5.10;2.83;;;25.30;93.50;;;;;;5036249;28;20483;-73
2023/07/22 11:09:30;;;;;;;4.43;2.58;;;25.20;93.30;;;;;;5031050;28;20040;-73
2023/07/22 11:12:02;;;;;;;3.58;2.10;;;25.00;93.40;;;;;;5055819;28;20021;-73
2023/07/22 11:14:32;;;;;;;3.75;2.38;;;24.70;93.50;;;;;;5055996;28;20040;-73
2023/07/22 11:17:01;;;;;;;3.92;2.65;;;24.50;93.60;;;;;;5062716;28;20033;-73
2023/07/22 11:19:28;;;;;;;2.85;1.75;;;24.20;93.60;;;;;;5039665;28;20402;-73
2023/07/22 11:21:55;;;;;;;4.45;1.83;;;23.90;94.00;;;;;;5041363;28;20134;-73
2023/07/22 11:24:23;;;;;;;4.15;1.92;;;23.70;94.20;;;;;;5057391;28;20333;-73
2023/07/22 11:26:51;;;;;;;3.30;1.92;;;23.50;94.40;;;;;;5055883;28;20028;-73
2023/07/22 11:29:17;;;;;;;3.95;1.80;;;23.30;94.70;;;;;;5054710;28;20506;-73
2023/07/22 11:31:46;;;;;;;3.28;1.70;;;23.20;94.80;;;;;;5056995;28;20021;-73
2023/07/22 11:34:14;;;;;;;2.55;1.45;;;23.00;94.80;;;;;;5039874;28;20028;-73
2023/07/22 11:36:41;;;;;;;3.83;1.50;;;22.90;94.90;;;;;;5038797;28;20063;-73
2023/07/22 11:39:10;;;;;;;5.18;1.80;;;22.80;95.10;;;;;;5059190;28;20302;-73
2023/07/22 11:41:37;;;;;;;2.88;1.85;;;22.70;95.10;;;;;;5039042;28;20024;-73
2023/07/22 11:44:08;;;;;;;5.47;3.40;;;22.60;95.20;;;;;;5056451;28;20031;-73
2023/07/22 11:46:46;;;;;;;3.35;2.13;;;22.50;95.20;;;;;;5038755;28;20858;-73
2023/07/22 11:49:13;;;;;;;8.23;3.03;;;22.30;95.40;;;;;;5021619;28;20956;-73
2023/07/22 11:51:42;;;;;;;3.00;1.88;;;22.30;95.70;;;;;;5039151;28;20511;-73
2023/07/22 11:54:10;;;;;;;3.75;1.70;;;22.40;95.80;;;;;;5025161;28;20510;-73
2023/07/22 11:56:39;;;;;;;3.40;1.65;;;22.50;95.60;;;;;;5038944;28;20342;-73
2023/07/22 11:59:08;;;;;;;4.93;2.00;;;22.50;95.50;;;;;;5024457;28;20024;-73
2023/07/22 12:01:34;;;;;;;2.20;1.25;;;22.50;95.40;;;;;;5057809;28;20021;-73
2023/07/22 12:04:01;;;;;;;2.25;1.27;;;22.40;95.50;;;;;;5054011;28;20017;-80
2023/07/22 12:06:28;;;;;;;3.63;1.77;;;22.30;95.60;;;;;;5038431;28;20514;-73
2023/07/22 12:08:55;;;;;;;3.08;1.55;;;22.20;95.70;;;;;;5021759;28;20110;-74
2023/07/22 12:11:24;;;;;;;3.13;1.70;;;22.20;95.70;;;;;;5039463;28;20040;-73
2023/07/22 12:14:11;;;;;;;3.78;1.58;;;22.20;95.90;;;;;;5021396;28;20025;-73
2023/07/22 12:16:40;;;;;;;3.22;1.80;;;22.20;96.00;;;;;;5040154;28;20024;-73
2023/07/22 12:19:09;;;;;;;4.45;1.80;;;22.40;96.10;;;;;;5036994;28;20487;-73
2023/07/22 12:21:36;;;;;;;6.78;1.58;;;22.70;96.20;;;;;;5058134;28;20013;-73
2023/07/22 12:24:04;;;;;;;4.72;2.25;;;23.20;95.90;;;;;;5036681;28;20017;-74
2023/07/22 12:26:30;;;;;;;3.72;1.40;;;23.80;95.30;;;;;;5036852;28;20031;-74
2023/07/22 12:28:57;;;;;;;2.13;1.00;;;24.50;95.00;;;;;;5021087;28;20035;-75
2023/07/22 12:31:24;;;;;;;3.60;1.42;;;25.30;94.10;;;;;;5058038;28;20361;-73
2023/07/22 12:33:50;;;;;;;3.28;1.27;;;25.40;93.10;;;;;;5056443;28;20032;-73
2023/07/22 12:36:17;;;;;;;2.83;1.05;;;25.10;92.60;;;;;;5023160;28;20052;-74
2023/07/22 12:38:43;;;;;;;3.10;0.90;;;24.70;92.70;;;;;;5038687;28;20017;-73
2023/07/22 12:41:09;;;;;;;2.85;0.80;;;24.20;93.00;;;;;;5025425;28;20023;-73